Lanaken, Belgium

9:52 PM CEST on October 20, 2017 (GMT +0200)
Maastricht | | Change Station

Elev 0 ft 50.85 °N, 5.65 °E | Updated 5 minutes ago

Clear
Clear
50.2 °F
Feels Like 50.2 °F
N
6.7
Wind Variable Wind from SSE
Gusts 6.7 mph

Today
High -- | Low -- °F
--% Chance of Precip.
Yesterday
High -- | Low -- °F
Precip. -- in
Pressure 29.92 in
Visibility 6.2 miles
Clouds Few 3600 ft
Dew Point 39 °F
Humidity 65%
Rainfall 0.08 in
Snow Depth Not available.
8:08 AM 6:34 PM
New Moon, 1% visible
METAR EBBL 201925Z AUTO 22009KT 9999 FEW036/// 12/07 Q1013 BLU
Pressure 29.92 in
Visibility 6.2 miles
Clouds Few 3600 ft
Dew Point 39 °F
Humidity 65%
Rainfall 0.08 in
Snow Depth Not available.
8:08 AM 6:34 PM
New Moon, 1% visible
METAR EBBL 201925Z AUTO 22009KT 9999 FEW036/// 12/07 Q1013 BLU

Get Severe Weather Alerts

Thanks for signing up!

Be on the lookout for a verification email in your inbox.

You'll start receiving the daily forecast at 6 AM.

×

10-Day Weather Forecast

×

Almanac

Astronomy

Oct. 20, 2017 Rise Set
Actual Time
Civil Twilight
Nautical Twilight
Astronomical Twilight
Moon
Length of Visible Light
Length of Day
Tomorrow will be .
, % of the Moon is Illuminated

Today's Extremes

Country Highs Country Lows

Community

WunderPhotos

Category 6

Welcome to Category 6. This is the collective home for Weather Underground's featured writeups by Dr. Jeff Masters (right), Bob Henson (left), Chris Burt, and other regular contributors.

Nearby

Air Quality

  Air Quality AQ Index Pollutant
Not available.

Snow Depth

Station Depth Elevation

Earthquake Activity

City Distance Mag. Time & Date
Minimum magnitude displayed is 2.5.

Coastal Water Temperatures

Place Temperature

Stations

Nearby Weather Stations

Station Location Temp. Windchill Dew Point Humidity Wind Precip. Elev Updated Type